sensor_id;sensor_type;location;lat;lon;timestamp;pressure;altitude;pressure_sealevel;temperature;humidity
29839;BME280;18669;53.356;-1.464;2023-03-25T00:00:30;98196.66;;;8.04;100.00
29839;BME280;18669;53.356;-1.464;2023-03-25T00:03:16;98187.66;;;8.10;100.00
29839;BME280;18669;53.356;-1.464;2023-03-25T00:06:01;98201.22;;;8.18;100.00
29839;BME280;18669;53.356;-1.464;2023-03-25T00:08:46;98188.81;;;8.21;100.00
29839;BME280;18669;53.356;-1.464;2023-03-25T00:11:31;98197.53;;;8.22;100.00
29839;BME280;18669;53.356;-1.464;2023-03-25T00:14:16;98207.13;;;8.21;100.00
29839;BME280;18669;53.356;-1.464;2023-03-25T00:17:01;98202.75;;;8.04;100.00
29839;BME280;18669;53.356;-1.464;2023-03-25T00:19:46;98192.88;;;8.10;100.00
29839;BME280;18669;53.356;-1.464;2023-03-25T00:22:33;98200.84;;;8.08;100.00
29839;BME280;18669;53.356;-1.464;2023-03-25T00:25:23;98203.13;;;8.14;100.00
29839;BME280;18669;53.356;-1.464;2023-03-25T00:28:08;98204.91;;;8.14;100.00
29839;BME280;18669;53.356;-1.464;2023-03-25T00:30:53;98206.50;;;8.16;100.00
29839;BME280;18669;53.356;-1.464;2023-03-25T00:33:38;98197.34;;;8.07;100.00
29839;BME280;18669;53.356;-1.464;2023-03-25T00:36:25;98201.66;;;8.09;100.00
29839;BME280;18669;53.356;-1.464;2023-03-25T00:39:10;98175.34;;;7.94;100.00
29839;BME280;18669;53.356;-1.464;2023-03-25T00:41:55;98184.25;;;7.90;100.00
29839;BME280;18669;53.356;-1.464;2023-03-25T00:44:41;98191.41;;;7.86;100.00
29839;BME280;18669;53.356;-1.464;2023-03-25T00:47:25;98196.09;;;7.80;100.00
29839;BME280;18669;53.356;-1.464;2023-03-25T00:50:11;98183.00;;;7.80;100.00
29839;BME280;18669;53.356;-1.464;2023-03-25T00:52:56;98188.63;;;7.72;100.00
29839;BME280;18669;53.356;-1.464;2023-03-25T00:55:40;98179.28;;;7.66;100.00
29839;BME280;18669;53.356;-1.464;2023-03-25T00:58:26;98178.28;;;7.69;100.00
29839;BME280;18669;53.356;-1.464;2023-03-25T01:01:16;98178.75;;;7.77;100.00
29839;BME280;18669;53.356;-1.464;2023-03-25T01:04:02;98170.66;;;7.64;100.00
29839;BME280;18669;53.356;-1.464;2023-03-25T01:06:47;98173.41;;;7.61;100.00
29839;BME280;18669;53.356;-1.464;2023-03-25T01:09:35;98172.28;;;7.67;100.00
29839;BME280;18669;53.356;-1.464;2023-03-25T01:12:20;98178.34;;;7.67;100.00
29839;BME280;18669;53.356;-1.464;2023-03-25T01:15:05;98174.81;;;7.68;100.00
29839;BME280;18669;53.356;-1.464;2023-03-25T01:17:50;98162.75;;;7.66;100.00
29839;BME280;18669;53.356;-1.464;2023-03-25T01:20:35;98172.34;;;7.65;100.00
29839;BME280;18669;53.356;-1.464;2023-03-25T01:23:19;98172.81;;;7.73;100.00
29839;BME280;18669;53.356;-1.464;2023-03-25T01:26:05;98165.22;;;7.69;100.00
29839;BME280;18669;53.356;-1.464;2023-03-25T01:28:49;98161.53;;;7.73;100.00
29839;BME280;18669;53.356;-1.464;2023-03-25T01:31:34;98163.75;;;7.81;100.00
29839;BME280;18669;53.356;-1.464;2023-03-25T01:34:19;98172.69;;;7.76;100.00
29839;BME280;18669;53.356;-1.464;2023-03-25T01:37:04;98164.00;;;7.76;100.00
29839;BME280;18669;53.356;-1.464;2023-03-25T01:39:50;98171.66;;;7.79;100.00
29839;BME280;18669;53.356;-1.464;2023-03-25T01:42:35;98171.91;;;7.74;100.00
29839;BME280;18669;53.356;-1.464;2023-03-25T01:45:30;98188.44;;;7.94;100.00
29839;BME280;18669;53.356;-1.464;2023-03-25T01:48:24;98195.03;;;7.84;100.00
29839;BME280;18669;53.356;-1.464;2023-03-25T01:51:14;98180.94;;;7.86;100.00
29839;BME280;18669;53.356;-1.464;2023-03-25T01:53:59;98169.22;;;7.76;100.00
29839;BME280;18669;53.356;-1.464;2023-03-25T01:56:46;98187.16;;;7.84;100.00
29839;BME280;18669;53.356;-1.464;2023-03-25T01:59:31;98174.63;;;7.73;100.00
29839;BME280;18669;53.356;-1.464;2023-03-25T02:02:18;98173.31;;;7.82;100.00
29839;BME280;18669;53.356;-1.464;2023-03-25T02:05:06;98188.09;;;7.83;100.00
29839;BME280;18669;53.356;-1.464;2023-03-25T02:07:55;98186.41;;;7.82;100.00
29839;BME280;18669;53.356;-1.464;2023-03-25T02:10:44;98174.28;;;7.79;100.00
29839;BME280;18669;53.356;-1.464;2023-03-25T02:13:31;98170.84;;;7.79;100.00
29839;BME280;18669;53.356;-1.464;2023-03-25T02:36:38;98187.56;;;7.94;100.00
29839;BME280;18669;53.356;-1.464;2023-03-25T02:48:48;98181.88;;;8.03;100.00
29839;BME280;18669;53.356;-1.464;2023-03-25T02:51:39;98195.94;;;8.00;100.00
29839;BME280;18669;53.356;-1.464;2023-03-25T02:54:27;98186.78;;;7.91;100.00
29839;BME280;18669;53.356;-1.464;2023-03-25T02:57:17;98179.03;;;7.90;100.00
29839;BME280;18669;53.356;-1.464;2023-03-25T03:00:04;98198.19;;;7.90;100.00
29839;BME280;18669;53.356;-1.464;2023-03-25T03:03:01;98186.63;;;7.95;100.00
29839;BME280;18669;53.356;-1.464;2023-03-25T03:05:49;98178.69;;;7.96;100.00
29839;BME280;18669;53.356;-1.464;2023-03-25T03:11:39;98179.56;;;7.97;100.00
29839;BME280;18669;53.356;-1.464;2023-03-25T03:17:37;98192.50;;;8.00;100.00
29839;BME280;18669;53.356;-1.464;2023-03-25T03:20:30;98176.25;;;7.93;100.00
29839;BME280;18669;53.356;-1.464;2023-03-25T03:23:29;98191.19;;;8.09;100.00
29839;BME280;18669;53.356;-1.464;2023-03-25T03:26:30;98178.97;;;8.09;100.00
29839;BME280;18669;53.356;-1.464;2023-03-25T03:29:30;98184.78;;;8.14;100.00
29839;BME280;18669;53.356;-1.464;2023-03-25T03:32:25;98180.81;;;8.07;100.00
29839;BME280;18669;53.356;-1.464;2023-03-25T03:35:21;98178.41;;;8.20;100.00
29839;BME280;18669;53.356;-1.464;2023-03-25T03:38:12;98184.19;;;8.09;100.00
29839;BME280;18669;53.356;-1.464;2023-03-25T03:41:11;98202.53;;;8.09;100.00
29839;BME280;18669;53.356;-1.464;2023-03-25T03:44:13;98183.97;;;8.14;100.00
29839;BME280;18669;53.356;-1.464;2023-03-25T03:49:55;98187.66;;;8.10;100.00
29839;BME280;18669;53.356;-1.464;2023-03-25T03:52:46;98189.63;;;8.04;100.00
29839;BME280;18669;53.356;-1.464;2023-03-25T03:55:46;98211.06;;;8.13;100.00
29839;BME280;18669;53.356;-1.464;2023-03-25T03:58:37;98219.00;;;8.11;100.00
29839;BME280;18669;53.356;-1.464;2023-03-25T04:04:22;98217.00;;;8.16;100.00
29839;BME280;18669;53.356;-1.464;2023-03-25T04:07:15;98217.06;;;8.15;100.00
29839;BME280;18669;53.356;-1.464;2023-03-25T04:10:13;98206.44;;;8.18;100.00
29839;BME280;18669;53.356;-1.464;2023-03-25T04:13:03;98220.22;;;8.04;100.00
29839;BME280;18669;53.356;-1.464;2023-03-25T04:15:49;98207.34;;;7.82;100.00
29839;BME280;18669;53.356;-1.464;2023-03-25T04:18:34;98221.88;;;7.87;100.00
29839;BME280;18669;53.356;-1.464;2023-03-25T04:21:20;98231.06;;;7.96;100.00
29839;BME280;18669;53.356;-1.464;2023-03-25T04:24:05;98240.22;;;7.87;100.00
29839;BME280;18669;53.356;-1.464;2023-03-25T04:26:51;98264.03;;;8.00;100.00
29839;BME280;18669;53.356;-1.464;2023-03-25T04:29:36;98249.47;;;7.95;100.00
29839;BME280;18669;53.356;-1.464;2023-03-25T04:32:23;98239.59;;;7.82;100.00
29839;BME280;18669;53.356;-1.464;2023-03-25T04:35:15;98237.53;;;7.89;100.00
29839;BME280;18669;53.356;-1.464;2023-03-25T04:38:02;98256.03;;;7.67;100.00
29839;BME280;18669;53.356;-1.464;2023-03-25T04:40:47;98257.94;;;7.63;100.00
29839;BME280;18669;53.356;-1.464;2023-03-25T04:43:32;98269.31;;;7.62;100.00
29839;BME280;18669;53.356;-1.464;2023-03-25T04:46:17;98274.78;;;7.57;100.00
29839;BME280;18669;53.356;-1.464;2023-03-25T04:49:03;98264.38;;;7.56;100.00
29839;BME280;18669;53.356;-1.464;2023-03-25T04:51:51;98267.94;;;7.55;100.00
29839;BME280;18669;53.356;-1.464;2023-03-25T04:54:36;98265.94;;;7.41;100.00
29839;BME280;18669;53.356;-1.464;2023-03-25T04:57:23;98286.84;;;7.60;100.00
29839;BME280;18669;53.356;-1.464;2023-03-25T05:00:10;98303.97;;;7.48;100.00
29839;BME280;18669;53.356;-1.464;2023-03-25T05:02:55;98313.72;;;7.44;100.00
29839;BME280;18669;53.356;-1.464;2023-03-25T05:05:40;98305.59;;;7.51;100.00
29839;BME280;18669;53.356;-1.464;2023-03-25T05:08:25;98318.47;;;7.55;100.00
29839;BME280;18669;53.356;-1.464;2023-03-25T05:11:10;98310.63;;;7.55;100.00
29839;BME280;18669;53.356;-1.464;2023-03-25T05:13:55;98340.97;;;7.59;100.00
29839;BME280;18669;53.356;-1.464;2023-03-25T05:16:40;98328.03;;;7.56;100.00
29839;BME280;18669;53.356;-1.464;2023-03-25T05:19:25;98346.19;;;7.59;100.00
29839;BME280;18669;53.356;-1.464;2023-03-25T05:22:11;98356.88;;;7.55;100.00
29839;BME280;18669;53.356;-1.464;2023-03-25T05:24:57;98343.22;;;7.48;100.00
29839;BME280;18669;53.356;-1.464;2023-03-25T05:27:42;98342.44;;;7.46;100.00
29839;BME280;18669;53.356;-1.464;2023-03-25T05:30:27;98349.50;;;7.44;100.00
29839;BME280;18669;53.356;-1.464;2023-03-25T05:33:16;98347.53;;;7.49;100.00
29839;BME280;18669;53.356;-1.464;2023-03-25T05:36:03;98358.78;;;7.51;100.00
29839;BME280;18669;53.356;-1.464;2023-03-25T05:38:48;98363.31;;;7.47;100.00
29839;BME280;18669;53.356;-1.464;2023-03-25T05:41:33;98377.22;;;7.48;100.00
29839;BME280;18669;53.356;-1.464;2023-03-25T05:44:22;98372.78;;;7.50;100.00
29839;BME280;18669;53.356;-1.464;2023-03-25T05:47:06;98389.06;;;7.57;100.00
29839;BME280;18669;53.356;-1.464;2023-03-25T05:49:52;98394.13;;;7.60;100.00
29839;BME280;18669;53.356;-1.464;2023-03-25T05:52:37;98403.78;;;7.59;100.00
29839;BME280;18669;53.356;-1.464;2023-03-25T05:55:25;98403.41;;;7.67;100.00
29839;BME280;18669;53.356;-1.464;2023-03-25T05:58:10;98397.50;;;7.64;100.00
29839;BME280;18669;53.356;-1.464;2023-03-25T06:00:55;98415.53;;;7.70;100.00
29839;BME280;18669;53.356;-1.464;2023-03-25T06:03:41;98425.31;;;7.85;100.00
29839;BME280;18669;53.356;-1.464;2023-03-25T06:06:26;98441.00;;;7.85;100.00
29839;BME280;18669;53.356;-1.464;2023-03-25T06:09:12;98442.38;;;7.94;100.00
29839;BME280;18669;53.356;-1.464;2023-03-25T06:11:57;98450.28;;;7.93;100.00
29839;BME280;18669;53.356;-1.464;2023-03-25T06:14:42;98459.97;;;7.90;100.00
29839;BME280;18669;53.356;-1.464;2023-03-25T06:17:28;98468.97;;;7.85;100.00
29839;BME280;18669;53.356;-1.464;2023-03-25T06:20:14;98449.72;;;7.86;100.00
29839;BME280;18669;53.356;-1.464;2023-03-25T06:22:59;98469.94;;;7.82;100.00
29839;BME280;18669;53.356;-1.464;2023-03-25T06:25:45;98483.91;;;7.83;100.00
29839;BME280;18669;53.356;-1.464;2023-03-25T06:28:30;98481.41;;;7.80;100.00
29839;BME280;18669;53.356;-1.464;2023-03-25T06:31:19;98473.94;;;7.91;100.00
29839;BME280;18669;53.356;-1.464;2023-03-25T06:34:05;98496.72;;;7.89;100.00
29839;BME280;18669;53.356;-1.464;2023-03-25T06:36:50;98503.56;;;7.91;100.00
29839;BME280;18669;53.356;-1.464;2023-03-25T06:39:37;98501.47;;;8.00;100.00
29839;BME280;18669;53.356;-1.464;2023-03-25T06:42:22;98504.94;;;8.00;100.00
29839;BME280;18669;53.356;-1.464;2023-03-25T06:45:07;98513.53;;;8.04;100.00
29839;BME280;18669;53.356;-1.464;2023-03-25T06:47:53;98534.34;;;8.07;100.00
29839;BME280;18669;53.356;-1.464;2023-03-25T06:50:38;98526.75;;;8.01;100.00
29839;BME280;18669;53.356;-1.464;2023-03-25T06:53:23;98536.56;;;7.96;100.00
29839;BME280;18669;53.356;-1.464;2023-03-25T06:56:10;98544.06;;;8.03;100.00
29839;BME280;18669;53.356;-1.464;2023-03-25T06:58:58;98554.41;;;8.06;100.00
29839;BME280;18669;53.356;-1.464;2023-03-25T07:01:42;98569.34;;;8.04;100.00
29839;BME280;18669;53.356;-1.464;2023-03-25T07:04:28;98570.91;;;8.09;100.00
29839;BME280;18669;53.356;-1.464;2023-03-25T07:07:12;98574.19;;;8.14;100.00
29839;BME280;18669;53.356;-1.464;2023-03-25T07:09:57;98589.44;;;8.25;100.00
29839;BME280;18669;53.356;-1.464;2023-03-25T07:12:42;98589.50;;;8.23;100.00
29839;BME280;18669;53.356;-1.464;2023-03-25T07:15:27;98604.66;;;8.35;100.00
29839;BME280;18669;53.356;-1.464;2023-03-25T07:18:12;98601.78;;;8.42;100.00
29839;BME280;18669;53.356;-1.464;2023-03-25T07:20:57;98595.97;;;8.35;100.00
29839;BME280;18669;53.356;-1.464;2023-03-25T07:23:42;98600.16;;;8.39;100.00
29839;BME280;18669;53.356;-1.464;2023-03-25T07:26:27;98614.44;;;8.53;100.00
29839;BME280;18669;53.356;-1.464;2023-03-25T07:29:12;98617.44;;;8.64;100.00
29839;BME280;18669;53.356;-1.464;2023-03-25T07:31:57;98626.47;;;8.57;100.00
29839;BME280;18669;53.356;-1.464;2023-03-25T07:34:41;98621.63;;;8.68;100.00
29839;BME280;18669;53.356;-1.464;2023-03-25T07:37:26;98645.88;;;8.73;100.00
29839;BME280;18669;53.356;-1.464;2023-03-25T07:40:11;98626.50;;;8.76;100.00
29839;BME280;18669;53.356;-1.464;2023-03-25T07:42:56;98630.91;;;8.75;100.00
29839;BME280;18669;53.356;-1.464;2023-03-25T07:45:41;98634.38;;;8.76;100.00
29839;BME280;18669;53.356;-1.464;2023-03-25T07:48:26;98626.66;;;8.73;100.00
29839;BME280;18669;53.356;-1.464;2023-03-25T07:51:11;98627.94;;;8.83;100.00
29839;BME280;18669;53.356;-1.464;2023-03-25T07:53:58;98632.03;;;9.08;100.00
29839;BME280;18669;53.356;-1.464;2023-03-25T07:56:43;98640.91;;;9.05;100.00
29839;BME280;18669;53.356;-1.464;2023-03-25T07:59:28;98650.91;;;9.16;100.00
29839;BME280;18669;53.356;-1.464;2023-03-25T08:02:14;98667.13;;;9.44;100.00
29839;BME280;18669;53.356;-1.464;2023-03-25T08:04:59;98665.88;;;9.70;100.00
29839;BME280;18669;53.356;-1.464;2023-03-25T08:07:44;98689.56;;;10.05;100.00
29839;BME280;18669;53.356;-1.464;2023-03-25T08:10:29;98688.50;;;9.90;100.00
29839;BME280;18669;53.356;-1.464;2023-03-25T08:13:14;98703.31;;;9.74;100.00
29839;BME280;18669;53.356;-1.464;2023-03-25T08:15:58;98713.84;;;9.74;100.00
29839;BME280;18669;53.356;-1.464;2023-03-25T08:18:43;98705.59;;;9.62;100.00
29839;BME280;18669;53.356;-1.464;2023-03-25T08:21:28;98724.84;;;9.63;100.00
29839;BME280;18669;53.356;-1.464;2023-03-25T08:24:13;98742.91;;;9.88;100.00
29839;BME280;18669;53.356;-1.464;2023-03-25T08:26:58;98742.16;;;10.04;100.00
29839;BME280;18669;53.356;-1.464;2023-03-25T08:29:46;98749.75;;;10.10;100.00
29839;BME280;18669;53.356;-1.464;2023-03-25T08:32:37;98753.28;;;10.09;100.00
29839;BME280;18669;53.356;-1.464;2023-03-25T08:35:23;98755.47;;;10.36;100.00
29839;BME280;18669;53.356;-1.464;2023-03-25T08:38:08;98772.09;;;10.19;100.00
29839;BME280;18669;53.356;-1.464;2023-03-25T08:40:53;98778.44;;;10.32;100.00
29839;BME280;18669;53.356;-1.464;2023-03-25T08:43:38;98784.56;;;11.03;100.00
29839;BME280;18669;53.356;-1.464;2023-03-25T08:46:23;98789.13;;;11.33;100.00
29839;BME280;18669;53.356;-1.464;2023-03-25T08:49:08;98785.09;;;11.75;100.00
29839;BME280;18669;53.356;-1.464;2023-03-25T08:51:53;98795.31;;;12.14;100.00
29839;BME280;18669;53.356;-1.464;2023-03-25T08:54:37;98807.44;;;12.63;100.00
29839;BME280;18669;53.356;-1.464;2023-03-25T08:57:22;98817.56;;;12.71;100.00
29839;BME280;18669;53.356;-1.464;2023-03-25T09:00:08;98819.25;;;12.41;100.00
29839;BME280;18669;53.356;-1.464;2023-03-25T09:03:01;98828.44;;;12.34;100.00
29839;BME280;18669;53.356;-1.464;2023-03-25T09:05:47;98842.28;;;12.84;100.00
29839;BME280;18669;53.356;-1.464;2023-03-25T09:08:32;98850.19;;;12.70;95.15
29839;BME280;18669;53.356;-1.464;2023-03-25T09:11:17;98858.50;;;12.62;99.48
29839;BME280;18669;53.356;-1.464;2023-03-25T09:14:02;98866.66;;;12.73;94.79
29839;BME280;18669;53.356;-1.464;2023-03-25T09:16:47;98850.47;;;12.79;97.72
29839;BME280;18669;53.356;-1.464;2023-03-25T09:19:33;98871.53;;;12.65;98.55
29839;BME280;18669;53.356;-1.464;2023-03-25T09:22:18;98893.88;;;11.77;100.00
29839;BME280;18669;53.356;-1.464;2023-03-25T09:25:04;98895.97;;;11.37;100.00
29839;BME280;18669;53.356;-1.464;2023-03-25T09:27:50;98897.78;;;10.84;100.00
29839;BME280;18669;53.356;-1.464;2023-03-25T09:30:35;98913.78;;;10.42;100.00
29839;BME280;18669;53.356;-1.464;2023-03-25T09:33:20;98912.16;;;10.40;100.00
29839;BME280;18669;53.356;-1.464;2023-03-25T09:36:05;98916.84;;;10.33;100.00
29839;BME280;18669;53.356;-1.464;2023-03-25T09:38:51;98928.97;;;10.36;100.00
29839;BME280;18669;53.356;-1.464;2023-03-25T09:47:54;98923.28;;;13.59;100.00
29839;BME280;18669;53.356;-1.464;2023-03-25T09:50:44;98925.25;;;13.99;100.00
29839;BME280;18669;53.356;-1.464;2023-03-25T09:53:39;98942.72;;;14.16;98.51
29839;BME280;18669;53.356;-1.464;2023-03-25T09:56:29;98944.88;;;14.24;81.79
29839;BME280;18669;53.356;-1.464;2023-03-25T09:59:17;98955.19;;;13.70;93.47
29839;BME280;18669;53.356;-1.464;2023-03-25T10:14:32;98948.41;;;17.10;63.49
29839;BME280;18669;53.356;-1.464;2023-03-25T10:17:38;98967.75;;;17.12;63.05
29839;BME280;18669;53.356;-1.464;2023-03-25T10:23:35;98979.56;;;16.71;60.66
29839;BME280;18669;53.356;-1.464;2023-03-25T10:29:16;99006.13;;;16.71;61.62
29839;BME280;18669;53.356;-1.464;2023-03-25T10:32:14;99001.22;;;16.28;61.77
29839;BME280;18669;53.356;-1.464;2023-03-25T10:35:04;99008.06;;;15.93;67.13
29839;BME280;18669;53.356;-1.464;2023-03-25T10:37:57;99021.16;;;15.81;67.07
29839;BME280;18669;53.356;-1.464;2023-03-25T10:40:46;99041.47;;;15.55;67.38
29839;BME280;18669;53.356;-1.464;2023-03-25T10:43:37;99032.84;;;14.27;72.90
29839;BME280;18669;53.356;-1.464;2023-03-25T10:46:51;99042.19;;;14.47;77.42
29839;BME280;18669;53.356;-1.464;2023-03-25T10:49:39;99040.78;;;14.98;73.79
29839;BME280;18669;53.356;-1.464;2023-03-25T10:52:28;99052.47;;;15.09;73.60
29839;BME280;18669;53.356;-1.464;2023-03-25T10:55:22;99054.75;;;15.55;66.76
29839;BME280;18669;53.356;-1.464;2023-03-25T10:58:15;99059.13;;;15.29;67.05
29839;BME280;18669;53.356;-1.464;2023-03-25T11:01:10;99063.13;;;15.21;66.99
29839;BME280;18669;53.356;-1.464;2023-03-25T11:03:56;99068.97;;;15.27;65.60
29839;BME280;18669;53.356;-1.464;2023-03-25T11:06:45;99088.59;;;15.37;65.87
29839;BME280;18669;53.356;-1.464;2023-03-25T11:09:33;99087.31;;;15.02;65.26
29839;BME280;18669;53.356;-1.464;2023-03-25T11:12:21;99100.06;;;14.67;72.04
29839;BME280;18669;53.356;-1.464;2023-03-25T11:15:06;99108.25;;;14.64;71.32
29839;BME280;18669;53.356;-1.464;2023-03-25T11:17:59;99114.75;;;14.43;72.61
29839;BME280;18669;53.356;-1.464;2023-03-25T11:20:55;99124.97;;;13.90;77.28
29839;BME280;18669;53.356;-1.464;2023-03-25T11:23:45;99139.84;;;13.61;82.44
29839;BME280;18669;53.356;-1.464;2023-03-25T11:26:39;99142.75;;;13.24;85.52
29839;BME280;18669;53.356;-1.464;2023-03-25T11:29:26;99144.78;;;12.87;93.38
29839;BME280;18669;53.356;-1.464;2023-03-25T11:32:15;99153.34;;;12.74;97.62
29839;BME280;18669;53.356;-1.464;2023-03-25T11:35:01;99160.88;;;13.14;100.00
29839;BME280;18669;53.356;-1.464;2023-03-25T11:38:13;99162.94;;;13.73;90.66
29839;BME280;18669;53.356;-1.464;2023-03-25T11:40:59;99167.25;;;13.90;84.36
29839;BME280;18669;53.356;-1.464;2023-03-25T11:43:47;99172.75;;;14.01;86.33
29839;BME280;18669;53.356;-1.464;2023-03-25T11:46:32;99170.34;;;14.13;86.73
29839;BME280;18669;53.356;-1.464;2023-03-25T11:49:20;99165.53;;;14.20;82.62
29839;BME280;18669;53.356;-1.464;2023-03-25T11:52:11;99176.59;;;14.71;81.89
29839;BME280;18669;53.356;-1.464;2023-03-25T11:54:59;99173.41;;;15.37;75.63
29839;BME280;18669;53.356;-1.464;2023-03-25T11:57:46;99162.34;;;16.13;67.89
29839;BME280;18669;53.356;-1.464;2023-03-25T12:00:39;99168.84;;;15.81;68.35
29839;BME280;18669;53.356;-1.464;2023-03-25T12:03:30;99187.72;;;15.34;71.70
29839;BME280;18669;53.356;-1.464;2023-03-25T12:06:18;99187.41;;;14.83;76.31
29839;BME280;18669;53.356;-1.464;2023-03-25T12:09:09;99187.97;;;15.44;73.26
29839;BME280;18669;53.356;-1.464;2023-03-25T12:15:12;99183.69;;;18.25;59.42
29839;BME280;18669;53.356;-1.464;2023-03-25T12:18:29;99183.22;;;19.12;54.27
29839;BME280;18669;53.356;-1.464;2023-03-25T12:36:56;99199.16;;;18.78;53.30
29839;BME280;18669;53.356;-1.464;2023-03-25T12:48:43;99187.78;;;17.44;57.85
29839;BME280;18669;53.356;-1.464;2023-03-25T12:55:11;99197.22;;;16.85;55.37
29839;BME280;18669;53.356;-1.464;2023-03-25T13:01:19;99201.59;;;16.99;55.45
29839;BME280;18669;53.356;-1.464;2023-03-25T13:04:31;99211.47;;;16.84;55.58
29839;BME280;18669;53.356;-1.464;2023-03-25T13:07:32;99212.63;;;16.67;53.79
29839;BME280;18669;53.356;-1.464;2023-03-25T13:10:24;99205.28;;;16.45;54.65
29839;BME280;18669;53.356;-1.464;2023-03-25T13:13:16;99200.94;;;16.96;54.83
29839;BME280;18669;53.356;-1.464;2023-03-25T13:16:08;99199.97;;;17.60;53.05
29839;BME280;18669;53.356;-1.464;2023-03-25T13:19:05;99196.81;;;18.03;52.21
29839;BME280;18669;53.356;-1.464;2023-03-25T13:21:56;99197.50;;;18.30;51.27
29839;BME280;18669;53.356;-1.464;2023-03-25T13:24:46;99192.50;;;17.89;49.37
29839;BME280;18669;53.356;-1.464;2023-03-25T13:27:38;99204.50;;;17.71;50.23
29839;BME280;18669;53.356;-1.464;2023-03-25T13:30:32;99219.59;;;18.43;48.15
29839;BME280;18669;53.356;-1.464;2023-03-25T13:33:27;99217.03;;;18.06;48.23
29839;BME280;18669;53.356;-1.464;2023-03-25T13:36:25;99208.28;;;18.28;48.98
29839;BME280;18669;53.356;-1.464;2023-03-25T13:39:22;99226.94;;;18.87;48.63
29839;BME280;18669;53.356;-1.464;2023-03-25T13:42:16;99225.13;;;19.10;47.42
29839;BME280;18669;53.356;-1.464;2023-03-25T13:45:03;99217.19;;;18.52;47.07
29839;BME280;18669;53.356;-1.464;2023-03-25T13:50:42;99220.22;;;18.58;47.47
29839;BME280;18669;53.356;-1.464;2023-03-25T13:53:47;99216.44;;;20.19;43.74
29839;BME280;18669;53.356;-1.464;2023-03-25T14:03:11;99225.25;;;18.86;45.99
29839;BME280;18669;53.356;-1.464;2023-03-25T14:06:22;99235.94;;;19.20;45.92
29839;BME280;18669;53.356;-1.464;2023-03-25T14:09:40;99230.13;;;19.81;43.96
29839;BME280;18669;53.356;-1.464;2023-03-25T14:12:35;99232.56;;;19.96;44.26
29839;BME280;18669;53.356;-1.464;2023-03-25T14:15:32;99237.09;;;20.38;42.96
29839;BME280;18669;53.356;-1.464;2023-03-25T14:18:18;99243.47;;;21.82;40.47
29839;BME280;18669;53.356;-1.464;2023-03-25T14:27:06;99256.66;;;18.22;44.88
29839;BME280;18669;53.356;-1.464;2023-03-25T14:30:02;99273.19;;;17.40;47.22
29839;BME280;18669;53.356;-1.464;2023-03-25T14:32:48;99274.66;;;16.79;48.47
29839;BME280;18669;53.356;-1.464;2023-03-25T14:38:49;99265.97;;;18.99;45.93
29839;BME280;18669;53.356;-1.464;2023-03-25T14:44:43;99282.03;;;17.78;47.41
29839;BME280;18669;53.356;-1.464;2023-03-25T14:47:33;99284.91;;;16.98;50.04
29839;BME280;18669;53.356;-1.464;2023-03-25T14:53:09;99285.06;;;17.60;50.24
29839;BME280;18669;53.356;-1.464;2023-03-25T14:55:59;99286.34;;;17.54;50.50
29839;BME280;18669;53.356;-1.464;2023-03-25T14:58:50;99290.47;;;17.58;50.42
29839;BME280;18669;53.356;-1.464;2023-03-25T15:01:36;99279.06;;;17.69;50.80
29839;BME280;18669;53.356;-1.464;2023-03-25T15:04:28;99296.91;;;17.43;50.48
29839;BME280;18669;53.356;-1.464;2023-03-25T15:07:17;99299.28;;;17.22;51.25
29839;BME280;18669;53.356;-1.464;2023-03-25T15:10:04;99313.16;;;16.87;51.19
29839;BME280;18669;53.356;-1.464;2023-03-25T15:13:33;99302.94;;;16.80;50.75
29839;BME280;18669;53.356;-1.464;2023-03-25T15:16:25;99318.44;;;16.06;53.38
29839;BME280;18669;53.356;-1.464;2023-03-25T15:19:12;99331.72;;;15.04;55.20
29839;BME280;18669;53.356;-1.464;2023-03-25T15:24:51;99337.72;;;14.15;64.96
29839;BME280;18669;53.356;-1.464;2023-03-25T15:28:07;99339.78;;;14.10;77.84
29839;BME280;18669;53.356;-1.464;2023-03-25T15:35:01;99333.97;;;14.19;79.32
29839;BME280;18669;53.356;-1.464;2023-03-25T15:41:44;99347.25;;;15.11;70.49
29839;BME280;18669;53.356;-1.464;2023-03-25T15:44:25;99329.88;;;15.50;68.58
29839;BME280;18669;53.356;-1.464;2023-03-25T15:53:55;99323.13;;;16.83;58.73
29839;BME280;18669;53.356;-1.464;2023-03-25T15:56:45;99331.19;;;16.81;56.72
29839;BME280;18669;53.356;-1.464;2023-03-25T15:59:41;99332.91;;;16.42;57.48
29839;BME280;18669;53.356;-1.464;2023-03-25T16:02:36;99312.16;;;16.21;58.51
29839;BME280;18669;53.356;-1.464;2023-03-25T16:05:24;99332.09;;;15.85;58.08
29839;BME280;18669;53.356;-1.464;2023-03-25T16:08:20;99326.63;;;15.74;58.96
29839;BME280;18669;53.356;-1.464;2023-03-25T16:14:11;99334.00;;;15.69;59.44
29839;BME280;18669;53.356;-1.464;2023-03-25T16:16:59;99334.44;;;16.59;57.04
29839;BME280;18669;53.356;-1.464;2023-03-25T16:19:49;99328.75;;;18.68;51.32
29839;BME280;18669;53.356;-1.464;2023-03-25T16:22:36;99324.38;;;20.81;45.91
29839;BME280;18669;53.356;-1.464;2023-03-25T16:25:32;99328.22;;;21.41;43.86
29839;BME280;18669;53.356;-1.464;2023-03-25T16:28:32;99338.94;;;21.41;44.42
29839;BME280;18669;53.356;-1.464;2023-03-25T16:31:32;99335.69;;;22.19;41.25
29839;BME280;18669;53.356;-1.464;2023-03-25T16:34:19;99341.25;;;22.57;39.94
29839;BME280;18669;53.356;-1.464;2023-03-25T16:37:04;99356.13;;;22.10;40.87
29839;BME280;18669;53.356;-1.464;2023-03-25T16:39:52;99346.22;;;20.75;42.10
29839;BME280;18669;53.356;-1.464;2023-03-25T16:42:37;99350.81;;;18.81;45.94
29839;BME280;18669;53.356;-1.464;2023-03-25T16:45:22;99365.44;;;18.75;47.67
29839;BME280;18669;53.356;-1.464;2023-03-25T16:48:24;99347.56;;;18.29;48.49
29839;BME280;18669;53.356;-1.464;2023-03-25T16:51:14;99349.09;;;17.70;49.88
29839;BME280;18669;53.356;-1.464;2023-03-25T16:54:07;99355.50;;;17.03;50.86
29839;BME280;18669;53.356;-1.464;2023-03-25T16:56:53;99353.34;;;16.27;53.10
29839;BME280;18669;53.356;-1.464;2023-03-25T16:59:38;99365.44;;;15.75;54.19
29839;BME280;18669;53.356;-1.464;2023-03-25T17:02:29;99352.84;;;15.78;55.71
29839;BME280;18669;53.356;-1.464;2023-03-25T17:05:23;99349.22;;;15.79;55.98
29839;BME280;18669;53.356;-1.464;2023-03-25T17:08:09;99355.13;;;15.41;60.69